Terminal Aerodrome Forecast
Issued by NWS

Home | Current Version | Previous Version | Text Only | Print | Product List | Glossary On
Versions: 1 2 3 4 5 6 7 8 9 10 11 12 13 14 15 16 17 18 19 20
000
FTUS45 KGJT 291729
TAFEGE
TAF
KEGE 291729Z 2918/3018 00000KT P6SM FEW250
     FM292100 27009KT P6SM FEW250
     FM300300 20005KT P6SM FEW250
     FM301100 13004KT P6SM FEW250
     FM301400 00000KT P6SM FEW250=

USA.gov is the U.S. government's official web portal to all federal, state and local government web resources and services.